createdAt,value
2017-08-02T00:00:07.389Z,1011.23
2017-08-02T00:01:07.414Z,1011.28
2017-08-02T00:02:07.444Z,1011.32
2017-08-02T00:03:07.470Z,1011.34
2017-08-02T00:04:07.493Z,1011.36
2017-08-02T00:05:07.523Z,1011.37
2017-08-02T00:06:07.546Z,1011.33
2017-08-02T00:07:07.577Z,1011.37
2017-08-02T00:08:07.603Z,1011.36
2017-08-02T00:09:07.632Z,1011.31
2017-08-02T00:10:07.656Z,1011.35
2017-08-02T00:11:07.687Z,1011.38
2017-08-02T00:13:07.738Z,1011.39
2017-08-02T00:14:07.765Z,1011.4
2017-08-02T00:15:07.793Z,1011.39
2017-08-02T00:16:07.819Z,1011.44
2017-08-02T00:17:07.841Z,1011.41
2017-08-02T00:18:07.872Z,1011.41
2017-08-02T00:19:07.898Z,1011.39
2017-08-02T00:20:07.924Z,1011.39
2017-08-02T00:21:07.951Z,1011.36
2017-08-02T00:22:07.977Z,1011.33
2017-08-02T00:23:08.005Z,1011.3
2017-08-02T00:24:08.032Z,1011.27
2017-08-02T00:25:08.058Z,1011.23
2017-08-02T00:26:08.084Z,1011.21
2017-08-02T00:27:08.111Z,1011.2
2017-08-02T00:29:08.165Z,1011.24
2017-08-02T00:30:08.189Z,1011.19
2017-08-02T00:31:08.216Z,1011.15
2017-08-02T00:32:08.246Z,1011.13
2017-08-02T00:33:08.271Z,1011.05
2017-08-02T00:34:08.296Z,1011.05
2017-08-02T00:35:08.324Z,1011.03
2017-08-02T00:36:08.352Z,1011
2017-08-02T00:37:08.377Z,1011.03
2017-08-02T00:38:08.408Z,1011.05
2017-08-02T00:39:08.431Z,1011.07
2017-08-02T00:40:08.458Z,1011.07
2017-08-02T00:41:08.480Z,1011.08
2017-08-02T00:42:08.512Z,1011.13
2017-08-02T00:43:08.534Z,1011.17
2017-08-02T00:45:08.589Z,1011.3
2017-08-02T00:46:08.617Z,1011.35
2017-08-02T00:47:08.643Z,1011.38
2017-08-02T00:48:08.669Z,1011.42
2017-08-02T00:49:08.696Z,1011.46
2017-08-02T00:50:08.722Z,1011.43
2017-08-02T00:51:08.749Z,1011.39
2017-08-02T00:52:08.772Z,1011.39
2017-08-02T00:53:08.807Z,1011.42
2017-08-02T00:54:08.830Z,1011.48
2017-08-02T00:55:08.859Z,1011.49
2017-08-02T00:56:08.881Z,1011.53
2017-08-02T00:57:08.908Z,1011.55
2017-08-02T00:58:08.934Z,1011.52
2017-08-02T00:59:08.963Z,1011.54
2017-08-02T01:01:09.013Z,1011.5
2017-08-02T01:02:09.041Z,1011.43
2017-08-02T01:03:09.066Z,1011.39
2017-08-02T01:04:09.094Z,1011.39
2017-08-02T01:05:09.128Z,1011.37
2017-08-02T01:06:09.142Z,1011.36
2017-08-02T01:07:09.171Z,1011.34
2017-08-02T01:08:09.199Z,1011.34
2017-08-02T01:09:09.228Z,1011.38
2017-08-02T01:10:09.252Z,1011.38
2017-08-02T01:11:09.280Z,1011.36
2017-08-02T01:12:09.306Z,1011.28
2017-08-02T01:13:09.334Z,1011.21
2017-08-02T01:14:09.359Z,1011.2
2017-08-02T01:16:09.413Z,1011.19
2017-08-02T01:17:09.439Z,1011.23
2017-08-02T01:18:09.468Z,1011.22
2017-08-02T01:19:09.492Z,1011.24
2017-08-02T01:20:09.518Z,1011.24
2017-08-02T01:21:09.545Z,1011.23
2017-08-02T01:22:09.572Z,1011.21
2017-08-02T01:23:09.595Z,1011.19
2017-08-02T01:24:09.623Z,1011.18
2017-08-02T01:25:09.652Z,1011.16
2017-08-02T01:26:09.676Z,1011.18
2017-08-02T01:27:09.704Z,1011.19
2017-08-02T01:28:09.729Z,1011.17
2017-08-02T01:29:09.757Z,1011.17
2017-08-02T01:30:09.783Z,1011.18
2017-08-02T01:31:09.806Z,1011.23
2017-08-02T01:32:09.836Z,1011.24
2017-08-02T01:33:09.862Z,1011.27
2017-08-02T01:34:09.888Z,1011.29
2017-08-02T01:35:09.914Z,1011.25
2017-08-02T01:36:09.943Z,1011.3
2017-08-02T01:37:09.969Z,1011.29
2017-08-02T01:38:09.995Z,1011.31
2017-08-02T01:39:10.019Z,1011.38
2017-08-02T01:40:10.043Z,1011.37
2017-08-02T01:41:10.075Z,1011.34
2017-08-02T01:42:10.100Z,1011.33
2017-08-02T01:43:10.125Z,1011.35
2017-08-02T01:44:10.152Z,1011.35
2017-08-02T01:45:10.175Z,1011.34
2017-08-02T01:46:10.210Z,1011.36
2017-08-02T01:48:10.257Z,1011.36
2017-08-02T01:49:10.288Z,1011.37
2017-08-02T01:50:10.314Z,1011.38
2017-08-02T01:51:10.338Z,1011.38
2017-08-02T01:52:10.364Z,1011.33
2017-08-02T01:53:10.385Z,1011.31
2017-08-02T01:54:10.416Z,1011.36
2017-08-02T01:55:10.440Z,1011.36
2017-08-02T01:56:10.468Z,1011.34
2017-08-02T01:57:10.491Z,1011.32
2017-08-02T01:58:10.519Z,1011.37
2017-08-02T01:59:10.547Z,1011.28
2017-08-02T02:00:10.574Z,1011.26
2017-08-02T02:01:10.601Z,1011.28
2017-08-02T02:02:10.627Z,1011.28
2017-08-02T02:04:10.679Z,1011.28
2017-08-02T02:05:10.704Z,1011.31
2017-08-02T02:06:10.734Z,1011.28
2017-08-02T02:07:10.754Z,1011.25
2017-08-02T02:08:10.784Z,1011.29
2017-08-02T02:09:10.811Z,1011.35
2017-08-02T02:10:10.833Z,1011.36
2017-08-02T02:11:10.860Z,1011.36
2017-08-02T02:12:10.888Z,1011.41
2017-08-02T02:13:10.919Z,1011.42
2017-08-02T02:14:10.939Z,1011.44
2017-08-02T02:15:10.970Z,1011.47
2017-08-02T02:16:10.990Z,1011.42
2017-08-02T02:17:11.021Z,1011.43
2017-08-02T02:18:11.047Z,1011.47
2017-08-02T02:20:11.100Z,1011.46
2017-08-02T02:21:11.126Z,1011.46
2017-08-02T02:22:11.148Z,1011.5
2017-08-02T02:23:11.177Z,1011.51
2017-08-02T02:24:11.202Z,1011.49
2017-08-02T02:25:11.230Z,1011.51
2017-08-02T02:26:11.258Z,1011.52
2017-08-02T02:27:11.278Z,1011.56
2017-08-02T02:28:11.308Z,1011.58
2017-08-02T02:29:11.332Z,1011.59
2017-08-02T02:30:11.359Z,1011.53
2017-08-02T02:31:11.388Z,1011.56
2017-08-02T02:32:11.419Z,1011.53
2017-08-02T02:33:11.442Z,1011.53
2017-08-02T02:34:11.467Z,1011.55
2017-08-02T02:36:11.517Z,1011.56
2017-08-02T02:37:11.544Z,1011.53
2017-08-02T02:38:11.568Z,1011.51
2017-08-02T02:39:11.598Z,1011.48
2017-08-02T02:40:11.621Z,1011.48
2017-08-02T02:41:11.647Z,1011.49
2017-08-02T02:42:11.674Z,1011.43
2017-08-02T02:43:11.701Z,1011.45
2017-08-02T02:44:11.728Z,1011.44
2017-08-02T02:45:11.749Z,1011.5
2017-08-02T02:46:11.778Z,1011.45
2017-08-02T02:47:11.805Z,1011.45
2017-08-02T02:48:11.829Z,1011.46
2017-08-02T02:49:11.857Z,1011.53
2017-08-02T02:51:11.910Z,1011.51
2017-08-02T02:52:11.936Z,1011.48
2017-08-02T02:53:11.962Z,1011.51
2017-08-02T02:54:11.988Z,1011.56
2017-08-02T02:55:12.013Z,1011.49
2017-08-02T02:56:12.043Z,1011.6
2017-08-02T02:57:12.068Z,1011.62
2017-08-02T02:58:12.093Z,1011.62
2017-08-02T02:59:12.118Z,1011.58
2017-08-02T03:00:12.142Z,1011.57
2017-08-02T03:01:12.172Z,1011.54
2017-08-02T03:02:12.198Z,1011.56
2017-08-02T03:03:12.224Z,1011.55
2017-08-02T03:04:12.253Z,1011.6
2017-08-02T03:05:12.275Z,1011.58
2017-08-02T03:06:12.298Z,1011.58
2017-08-02T03:07:12.325Z,1011.6
2017-08-02T03:08:12.350Z,1011.58
2017-08-02T03:09:12.379Z,1011.61
2017-08-02T03:10:12.406Z,1011.61
2017-08-02T03:11:12.430Z,1011.63
2017-08-02T03:12:12.456Z,1011.62
2017-08-02T03:13:12.783Z,1011.67
2017-08-02T03:14:12.509Z,1011.67
2017-08-02T03:15:12.536Z,1011.71
2017-08-02T03:16:12.559Z,1011.7
2017-08-02T03:17:12.588Z,1011.7
2017-08-02T03:18:12.611Z,1011.71
2017-08-02T03:19:12.636Z,1011.67
2017-08-02T03:20:12.660Z,1011.68
2017-08-02T03:21:12.689Z,1011.71
2017-08-02T03:23:12.741Z,1011.72
2017-08-02T03:24:12.770Z,1011.76
2017-08-02T03:25:12.793Z,1011.75
2017-08-02T03:26:12.816Z,1011.78
2017-08-02T03:27:12.847Z,1011.79
2017-08-02T03:28:12.872Z,1011.8
2017-08-02T03:29:12.899Z,1011.71
2017-08-02T03:30:12.922Z,1011.76
2017-08-02T03:31:12.952Z,1011.75
2017-08-02T03:32:12.974Z,1011.81
2017-08-02T03:33:12.998Z,1011.8
2017-08-02T03:34:13.027Z,1011.81
2017-08-02T03:35:13.053Z,1011.85
2017-08-02T03:36:13.080Z,1011.87
2017-08-02T03:37:13.104Z,1011.87
2017-08-02T03:39:13.162Z,1011.9
2017-08-02T03:40:13.181Z,1011.93
2017-08-02T03:41:13.209Z,1011.89
2017-08-02T03:42:13.235Z,1011.94
2017-08-02T03:43:13.259Z,1011.9
2017-08-02T03:44:13.283Z,1011.92
2017-08-02T03:45:13.311Z,1011.91
2017-08-02T03:46:13.335Z,1011.92
2017-08-02T03:47:13.357Z,1011.92
2017-08-02T03:48:13.389Z,1011.91
2017-08-02T03:49:13.414Z,1011.93
2017-08-02T03:50:13.444Z,1011.94
2017-08-02T03:51:13.465Z,1011.91
2017-08-02T03:52:13.490Z,1011.89
2017-08-02T03:53:13.520Z,1011.96
2017-08-02T03:55:13.569Z,1011.95
2017-08-02T03:56:13.593Z,1011.97
2017-08-02T03:57:13.620Z,1011.95
2017-08-02T03:58:13.644Z,1011.99
2017-08-02T03:59:13.674Z,1012
2017-08-02T04:00:13.700Z,1012.04
2017-08-02T04:01:13.725Z,1012.02
2017-08-02T04:02:13.747Z,1012.04
2017-08-02T04:03:13.771Z,1012.06
2017-08-02T04:04:13.802Z,1012.07
2017-08-02T04:05:13.823Z,1012.07
2017-08-02T04:06:13.851Z,1012.08
2017-08-02T04:07:13.877Z,1012.09
2017-08-02T04:08:13.905Z,1012.1
2017-08-02T04:09:13.930Z,1012.15
2017-08-02T04:11:13.982Z,1012.17
2017-08-02T04:12:14.008Z,1012.17
2017-08-02T04:13:14.032Z,1012.23
2017-08-02T04:14:14.057Z,1012.27
2017-08-02T04:15:14.085Z,1012.28
2017-08-02T04:16:14.110Z,1012.28
2017-08-02T04:17:14.140Z,1012.38
2017-08-02T04:18:14.164Z,1012.37
2017-08-02T04:19:14.190Z,1012.35
2017-08-02T04:20:14.219Z,1012.37
2017-08-02T04:21:14.239Z,1012.38
2017-08-02T04:22:14.267Z,1012.37
2017-08-02T04:23:14.294Z,1012.39
2017-08-02T04:24:14.321Z,1012.42
2017-08-02T04:26:14.374Z,1012.45
2017-08-02T04:27:14.400Z,1012.46
2017-08-02T04:28:14.425Z,1012.45
2017-08-02T04:29:14.449Z,1012.43
2017-08-02T04:30:14.490Z,1012.5
2017-08-02T04:31:14.505Z,1012.46
2017-08-02T04:32:14.531Z,1012.48
2017-08-02T04:33:14.556Z,1012.54
2017-08-02T04:34:14.582Z,1012.51
2017-08-02T04:35:14.608Z,1012.51
2017-08-02T04:36:14.635Z,1012.54
2017-08-02T04:37:14.658Z,1012.52
2017-08-02T04:38:14.686Z,1012.53
2017-08-02T04:39:14.709Z,1012.51
2017-08-02T04:40:14.737Z,1012.51
2017-08-02T04:41:14.770Z,1012.5
2017-08-02T04:42:14.790Z,1012.53
2017-08-02T04:43:14.817Z,1012.54
2017-08-02T04:44:14.840Z,1012.55
2017-08-02T04:45:14.869Z,1012.53
2017-08-02T04:46:14.900Z,1012.53
2017-08-02T04:47:14.924Z,1012.54
2017-08-02T04:48:14.950Z,1012.54
2017-08-02T04:49:14.975Z,1012.58
2017-08-02T04:50:14.999Z,1012.56
2017-08-02T04:51:15.025Z,1012.53
2017-08-02T04:52:15.054Z,1012.55
2017-08-02T04:53:15.080Z,1012.53
2017-08-02T04:54:15.109Z,1012.53
2017-08-02T04:55:15.135Z,1012.55
2017-08-02T04:56:15.163Z,1012.59
2017-08-02T04:58:15.208Z,1012.59
2017-08-02T04:59:15.238Z,1012.57
2017-08-02T05:00:15.264Z,1012.57
2017-08-02T05:01:15.300Z,1012.57
2017-08-02T05:02:15.317Z,1012.52
2017-08-02T05:03:15.344Z,1012.52
2017-08-02T05:04:15.369Z,1012.55
2017-08-02T05:05:15.396Z,1012.56
2017-08-02T05:06:15.425Z,1012.54
2017-08-02T05:07:15.447Z,1012.56
2017-08-02T05:08:15.473Z,1012.53
2017-08-02T05:09:15.503Z,1012.52
2017-08-02T05:10:15.529Z,1012.51
2017-08-02T05:11:15.555Z,1012.55
2017-08-02T05:12:15.580Z,1012.57
2017-08-02T05:14:15.636Z,1012.66
2017-08-02T05:15:15.661Z,1012.69
2017-08-02T05:16:15.690Z,1012.69
2017-08-02T05:17:15.719Z,1012.7
2017-08-02T05:18:15.745Z,1012.6
2017-08-02T05:19:15.770Z,1012.51
2017-08-02T05:20:15.802Z,1012.53
2017-08-02T05:21:15.832Z,1012.6
2017-08-02T05:22:15.861Z,1012.69
2017-08-02T05:23:15.887Z,1012.82
2017-08-02T05:24:15.914Z,1012.82
2017-08-02T05:25:15.947Z,1012.76
2017-08-02T05:26:15.974Z,1012.72
2017-08-02T05:27:16.004Z,1012.79
2017-08-02T05:28:16.038Z,1012.72
2017-08-02T05:30:16.090Z,1013.02
2017-08-02T05:31:16.121Z,1013
2017-08-02T05:32:16.155Z,1012.95
2017-08-02T05:33:16.181Z,1012.99
2017-08-02T05:34:16.206Z,1013.06
2017-08-02T05:35:16.244Z,1012.99
2017-08-02T05:36:16.274Z,1013.17
2017-08-02T05:37:16.302Z,1013.11
2017-08-02T05:38:16.330Z,1013.01
2017-08-02T05:39:16.363Z,1013.06
2017-08-02T05:40:16.392Z,1013.19
2017-08-02T05:41:16.426Z,1013.2
2017-08-02T05:42:16.457Z,1013.27
2017-08-02T05:43:16.484Z,1013.31
2017-08-02T05:44:16.521Z,1013.28
2017-08-02T05:46:16.580Z,1013.29
2017-08-02T05:47:16.616Z,1013.32
2017-08-02T05:48:16.647Z,1013.28
2017-08-02T05:49:16.682Z,1013.28
2017-08-02T05:50:16.715Z,1013.29
2017-08-02T05:51:16.744Z,1013.26
2017-08-02T05:52:16.780Z,1013.28
2017-08-02T05:53:16.815Z,1013.27
2017-08-02T05:54:16.845Z,1013.23
2017-08-02T05:55:16.882Z,1013.23
2017-08-02T05:56:16.914Z,1013.28
2017-08-02T05:57:16.946Z,1013.23
2017-08-02T05:58:16.980Z,1013.19
2017-08-02T05:59:17.015Z,1013.24
2017-08-02T06:01:17.083Z,1013.22
2017-08-02T06:02:17.118Z,1013.29
2017-08-02T06:03:17.151Z,1013.34
2017-08-02T06:04:17.186Z,1013.35
2017-08-02T06:05:17.223Z,1013.4
2017-08-02T06:06:17.256Z,1013.44
2017-08-02T06:07:17.290Z,1013.41
2017-08-02T06:08:17.326Z,1013.49
2017-08-02T06:09:17.358Z,1013.57
2017-08-02T06:10:17.398Z,1013.57
2017-08-02T06:11:17.432Z,1013.46
2017-08-02T06:12:17.487Z,1013.45
2017-08-02T06:13:17.503Z,1013.4
2017-08-02T06:14:17.536Z,1013.51
2017-08-02T06:15:17.571Z,1013.47
2017-08-02T06:16:17.608Z,1013.5
2017-08-02T06:17:17.643Z,1013.52
2017-08-02T06:18:17.676Z,1013.52
2017-08-02T06:19:17.713Z,1013.54
2017-08-02T06:20:17.750Z,1013.42
2017-08-02T06:21:17.787Z,1013.4
2017-08-02T06:22:17.819Z,1013.49
2017-08-02T06:23:17.859Z,1013.48
2017-08-02T06:24:17.889Z,1013.56
2017-08-02T06:25:17.929Z,1013.6
2017-08-02T06:26:17.961Z,1013.62
2017-08-02T06:27:18.001Z,1013.29
2017-08-02T06:28:18.031Z,1013.31
2017-08-02T06:29:18.075Z,1013.35
2017-08-02T06:30:18.111Z,1013.32
2017-08-02T06:31:18.143Z,1013.22
2017-08-02T06:33:18.214Z,1013.19
2017-08-02T06:34:18.249Z,1013.19
2017-08-02T06:35:18.287Z,1013.28
2017-08-02T06:36:18.325Z,1013.41
2017-08-02T06:37:18.355Z,1013.8
2017-08-02T06:38:18.392Z,1013.83
2017-08-02T06:39:18.424Z,1013.82
2017-08-02T06:40:18.458Z,1013.84
2017-08-02T06:41:18.494Z,1013.81
2017-08-02T06:42:18.526Z,1013.81
2017-08-02T06:43:18.562Z,1013.44
2017-08-02T06:44:18.601Z,1013.33
2017-08-02T06:45:18.633Z,1013.46
2017-08-02T06:46:18.663Z,1013.46
2017-08-02T06:47:18.696Z,1013.39
2017-08-02T06:49:18.764Z,1013.29
2017-08-02T06:50:18.799Z,1013.31
2017-08-02T06:51:18.836Z,1013.33
2017-08-02T06:52:18.872Z,1013.35
2017-08-02T06:53:18.907Z,1013.34
2017-08-02T06:54:18.938Z,1013.32
2017-08-02T06:55:18.973Z,1013.29
2017-08-02T06:56:19.008Z,1013.25
2017-08-02T06:57:19.040Z,1013.3
2017-08-02T06:58:19.073Z,1013.26
2017-08-02T06:59:19.105Z,1013.22
2017-08-02T07:00:19.141Z,1013.24
2017-08-02T07:01:19.170Z,1013.23
2017-08-02T07:02:19.204Z,1013.26
2017-08-02T07:03:19.237Z,1013.31
2017-08-02T07:05:19.300Z,1013.35
2017-08-02T07:06:19.329Z,1013.37
2017-08-02T07:07:19.365Z,1013.39
2017-08-02T07:08:19.396Z,1013.43
2017-08-02T07:09:19.428Z,1013.44
2017-08-02T07:10:19.459Z,1013.42
2017-08-02T07:11:19.489Z,1013.43
2017-08-02T07:12:19.521Z,1013.4
2017-08-02T07:13:19.552Z,1013.46
2017-08-02T07:14:19.583Z,1013.43
2017-08-02T07:15:19.618Z,1013.45
2017-08-02T07:16:19.651Z,1013.48
2017-08-02T07:17:19.675Z,1013.61
2017-08-02T07:18:19.713Z,1013.76
2017-08-02T07:19:19.741Z,1013.9
2017-08-02T07:21:19.807Z,1013.96
2017-08-02T07:22:19.841Z,1014.27
2017-08-02T07:23:19.864Z,1013.67
2017-08-02T07:24:19.915Z,1013.76
2017-08-02T07:25:19.930Z,1013.73
2017-08-02T07:26:19.961Z,1013.9
2017-08-02T07:27:19.994Z,1013.92
2017-08-02T07:28:20.023Z,1013.77
2017-08-02T07:29:20.056Z,1013.77
2017-08-02T07:30:20.089Z,1013.86
2017-08-02T07:31:20.120Z,1013.96
2017-08-02T07:32:20.153Z,1014.05
2017-08-02T07:33:20.190Z,1014
2017-08-02T07:34:20.222Z,1013.85
2017-08-02T07:36:20.286Z,1013.83
2017-08-02T07:37:20.316Z,1013.97
2017-08-02T07:38:20.351Z,1013.75
2017-08-02T07:39:20.380Z,1013.64
2017-08-02T07:40:20.415Z,1013.59
2017-08-02T07:41:20.452Z,1013.6
2017-08-02T07:42:20.479Z,1013.62
2017-08-02T07:43:20.517Z,1013.59
2017-08-02T07:44:20.548Z,1013.55
2017-08-02T07:45:20.579Z,1013.6
2017-08-02T07:46:20.612Z,1013.58
2017-08-02T07:47:20.648Z,1013.62
2017-08-02T07:48:20.682Z,1013.68
2017-08-02T07:49:20.715Z,1013.55
2017-08-02T07:50:20.750Z,1013.59
2017-08-02T07:51:20.782Z,1013.61
2017-08-02T07:52:20.810Z,1013.61
2017-08-02T07:53:20.848Z,1013.57
2017-08-02T07:54:20.877Z,1013.56
2017-08-02T07:55:20.915Z,1013.64
2017-08-02T07:56:20.941Z,1013.76
2017-08-02T07:57:20.978Z,1013.74
2017-08-02T07:58:21.010Z,1013.74
2017-08-02T07:59:21.037Z,1013.71
2017-08-02T08:00:21.079Z,1013.72
2017-08-02T08:01:21.109Z,1013.77
2017-08-02T08:02:21.142Z,1013.74
2017-08-02T08:03:21.170Z,1013.77
2017-08-02T08:04:21.204Z,1013.91
2017-08-02T08:05:21.237Z,1013.8
2017-08-02T08:06:21.269Z,1013.81
2017-08-02T08:08:21.334Z,1013.82
2017-08-02T08:09:21.366Z,1013.83
2017-08-02T08:10:21.397Z,1014.03
2017-08-02T08:11:21.429Z,1014
2017-08-02T08:12:21.461Z,1013.94
2017-08-02T08:13:21.495Z,1014.22
2017-08-02T08:14:21.577Z,1014
2017-08-02T08:15:21.563Z,1013.89
2017-08-02T08:16:21.588Z,1013.86
2017-08-02T08:17:21.625Z,1013.82
2017-08-02T08:18:21.657Z,1013.86
2017-08-02T08:19:21.686Z,1013.87
2017-08-02T08:20:21.723Z,1013.92
2017-08-02T08:21:21.751Z,1013.9
2017-08-02T08:22:21.787Z,1013.87
2017-08-02T08:24:21.850Z,1013.93
2017-08-02T08:25:21.882Z,1013.93
2017-08-02T08:26:21.912Z,1013.93
2017-08-02T08:27:21.947Z,1013.92
2017-08-02T08:28:21.976Z,1013.87
2017-08-02T08:29:22.011Z,1013.91
2017-08-02T08:30:22.038Z,1013.93
2017-08-02T08:31:22.076Z,1013.97
2017-08-02T08:32:22.101Z,1014.09
2017-08-02T08:33:22.136Z,1014.11
2017-08-02T08:34:22.170Z,1014.11
2017-08-02T08:35:22.200Z,1014.06
2017-08-02T08:36:22.230Z,1014.05
2017-08-02T08:37:22.261Z,1014.04
2017-08-02T08:38:22.299Z,1014.01
2017-08-02T08:40:22.361Z,1014.05
2017-08-02T08:41:22.390Z,1014.02
2017-08-02T08:42:22.423Z,1014.07
2017-08-02T08:43:22.450Z,1014.1
2017-08-02T08:44:22.484Z,1014.06
2017-08-02T08:45:22.515Z,1014.12
2017-08-02T08:46:22.550Z,1014.08
2017-08-02T08:47:22.579Z,1014.03
2017-08-02T08:48:22.612Z,1014.06
2017-08-02T08:49:22.644Z,1014.07
2017-08-02T08:50:22.672Z,1014.11
2017-08-02T08:51:22.705Z,1014.14
2017-08-02T08:52:22.736Z,1014.14
2017-08-02T08:53:22.773Z,1014.31
2017-08-02T08:54:22.801Z,1014.25
2017-08-02T08:56:22.864Z,1014.21
2017-08-02T08:57:22.898Z,1014.19
2017-08-02T08:58:22.925Z,1014.17
2017-08-02T08:59:22.959Z,1014.19
2017-08-02T09:00:22.991Z,1014.26
2017-08-02T09:01:23.024Z,1014.32
2017-08-02T09:02:23.051Z,1014.3
2017-08-02T09:03:23.085Z,1014.29
2017-08-02T09:04:23.114Z,1014.33
2017-08-02T09:05:23.153Z,1014.36
2017-08-02T09:06:23.182Z,1014.25
2017-08-02T09:07:23.213Z,1014.25
2017-08-02T09:08:23.246Z,1014.24
2017-08-02T09:09:23.276Z,1014.28
2017-08-02T09:11:23.342Z,1014.3
2017-08-02T09:12:23.375Z,1014.26
2017-08-02T09:13:23.408Z,1014.29
2017-08-02T09:14:23.441Z,1014.28
2017-08-02T09:15:23.470Z,1014.32
2017-08-02T09:16:23.504Z,1014.31
2017-08-02T09:17:23.534Z,1014.32
2017-08-02T09:18:23.570Z,1014.3
2017-08-02T09:19:23.598Z,1014.34
2017-08-02T09:20:23.639Z,1014.33
2017-08-02T09:21:23.665Z,1014.31
2017-08-02T09:22:23.696Z,1014.25
2017-08-02T09:23:23.725Z,1014.24
2017-08-02T09:24:23.756Z,1014.27
2017-08-02T09:25:23.790Z,1014.27
2017-08-02T09:26:23.824Z,1014.28
2017-08-02T09:27:23.860Z,1014.27
2017-08-02T09:28:23.891Z,1014.31
2017-08-02T09:29:23.927Z,1014.27
2017-08-02T09:30:23.955Z,1014.26
2017-08-02T09:31:23.993Z,1014.25
2017-08-02T09:32:24.023Z,1014.25
2017-08-02T09:33:24.063Z,1014.28
2017-08-02T09:34:24.090Z,1014.27
2017-08-02T09:35:24.124Z,1014.29
2017-08-02T09:36:24.161Z,1014.34
2017-08-02T09:37:24.196Z,1014.38
2017-08-02T09:38:24.223Z,1014.38
2017-08-02T09:39:24.264Z,1014.38
2017-08-02T09:40:24.293Z,1014.4
2017-08-02T09:41:24.326Z,1014.4
2017-08-02T09:43:24.396Z,1014.41
2017-08-02T09:44:24.429Z,1014.3
2017-08-02T09:45:24.464Z,1014.34
2017-08-02T09:46:24.497Z,1014.3
2017-08-02T09:47:24.526Z,1014.34
2017-08-02T09:48:24.560Z,1014.37
2017-08-02T09:49:24.597Z,1014.39
2017-08-02T09:50:24.628Z,1014.4
2017-08-02T09:51:24.662Z,1014.41
2017-08-02T09:52:24.691Z,1014.4
2017-08-02T09:53:24.725Z,1014.38
2017-08-02T09:54:24.758Z,1014.38
2017-08-02T09:55:24.792Z,1014.4
2017-08-02T09:56:24.823Z,1014.45
2017-08-02T09:57:24.855Z,1014.43
2017-08-02T09:59:24.924Z,1014.41
2017-08-02T10:00:24.953Z,1014.36
2017-08-02T10:01:24.984Z,1014.35
2017-08-02T10:02:25.013Z,1014.32
2017-08-02T10:03:25.047Z,1014.35
2017-08-02T10:04:25.077Z,1014.37
2017-08-02T10:05:25.111Z,1014.34
2017-08-02T10:06:25.143Z,1014.38
2017-08-02T10:07:25.175Z,1014.35
2017-08-02T10:08:25.210Z,1014.3
2017-08-02T10:09:25.237Z,1014.27
2017-08-02T10:10:25.272Z,1014.33
2017-08-02T10:11:25.300Z,1014.25
2017-08-02T10:12:25.338Z,1014.29
2017-08-02T10:13:25.367Z,1014.29
2017-08-02T10:15:25.433Z,1014.34
2017-08-02T10:16:25.468Z,1014.34
2017-08-02T10:17:25.500Z,1014.31
2017-08-02T10:18:25.527Z,1014.29
2017-08-02T10:19:25.565Z,1014.27
2017-08-02T10:20:25.593Z,1014.2
2017-08-02T10:21:25.632Z,1014.22
2017-08-02T10:22:25.665Z,1014.25
2017-08-02T10:23:25.695Z,1014.23
2017-08-02T10:24:25.728Z,1014.26
2017-08-02T10:25:25.760Z,1014.24
2017-08-02T10:26:25.795Z,1014.16
2017-08-02T10:27:25.825Z,1014.17
2017-08-02T10:28:25.859Z,1014.12
2017-08-02T10:29:25.887Z,1014.13
2017-08-02T10:31:25.958Z,1014.11
2017-08-02T10:32:25.988Z,1014.13
2017-08-02T10:33:26.017Z,1014.13
2017-08-02T10:34:26.055Z,1014.16
2017-08-02T10:35:26.087Z,1014.11
2017-08-02T10:36:26.114Z,1014.11
2017-08-02T10:37:26.148Z,1014.18
2017-08-02T10:38:26.180Z,1014.14
2017-08-02T10:39:26.214Z,1014.17
2017-08-02T10:40:26.241Z,1014.12
2017-08-02T10:41:26.272Z,1014.11
2017-08-02T10:42:26.306Z,1014.11
2017-08-02T10:43:26.337Z,1014.11
2017-08-02T10:44:26.374Z,1014.12
2017-08-02T10:46:26.434Z,1014.11
2017-08-02T10:47:26.467Z,1014.01
2017-08-02T10:48:26.499Z,1014.06
2017-08-02T10:49:26.528Z,1013.99
2017-08-02T10:50:26.561Z,1014.03
2017-08-02T10:51:26.595Z,1014.05
2017-08-02T10:52:26.623Z,1014.07
2017-08-02T10:53:26.659Z,1014.03
2017-08-02T10:54:26.687Z,1014.1
2017-08-02T10:55:26.725Z,1014.13
2017-08-02T10:56:26.749Z,1014.09
2017-08-02T10:57:26.784Z,1014.06
2017-08-02T10:58:26.813Z,1014.11
2017-08-02T10:59:26.846Z,1014.05
2017-08-02T11:00:26.878Z,1014.11
2017-08-02T11:01:26.912Z,1014.12
2017-08-02T11:02:26.940Z,1014.08
2017-08-02T11:03:26.973Z,1014.11
2017-08-02T11:04:27.007Z,1014.11
2017-08-02T11:05:27.034Z,1014.1
2017-08-02T11:06:27.067Z,1014.14
2017-08-02T11:07:27.096Z,1014.11
2017-08-02T11:08:27.133Z,1014.09
2017-08-02T11:09:27.159Z,1014.05
2017-08-02T11:10:27.197Z,1014.06
2017-08-02T11:11:27.221Z,1014.08
2017-08-02T11:12:27.257Z,1014.09
2017-08-02T11:13:27.288Z,1014.05
2017-08-02T11:14:27.317Z,1014.1
2017-08-02T11:15:27.352Z,1014.05
2017-08-02T11:16:27.379Z,1014.03
2017-08-02T11:18:27.443Z,1014.06
2017-08-02T11:19:27.477Z,1014.08
2017-08-02T11:20:27.505Z,1014.09
2017-08-02T11:21:27.538Z,1014.12
2017-08-02T11:22:27.568Z,1014.16
2017-08-02T11:23:27.598Z,1014.14
2017-08-02T11:24:27.628Z,1014.16
2017-08-02T11:25:27.663Z,1014.19
2017-08-02T11:26:27.693Z,1014.16
2017-08-02T11:27:27.720Z,1014.16
2017-08-02T11:28:27.757Z,1014.11
2017-08-02T11:29:27.783Z,1014.1
2017-08-02T11:30:27.820Z,1014.05
2017-08-02T11:31:27.846Z,1014.05
2017-08-02T11:32:27.884Z,1014.08
2017-08-02T11:34:27.941Z,1014.06
2017-08-02T11:35:27.974Z,1014.09
2017-08-02T11:36:28.006Z,1014.1
2017-08-02T11:37:28.039Z,1014.04
2017-08-02T11:38:28.069Z,1014.06
2017-08-02T11:39:28.100Z,1014.08
2017-08-02T11:40:28.128Z,1014.14
2017-08-02T11:41:28.165Z,1014.1
2017-08-02T11:42:28.191Z,1014.09
2017-08-02T11:43:28.222Z,1014.08
2017-08-02T11:44:28.254Z,1014.07
2017-08-02T11:45:28.286Z,1014.03
2017-08-02T11:46:28.314Z,1014.07
2017-08-02T11:47:28.348Z,1014.05
2017-08-02T11:48:28.380Z,1014.05
2017-08-02T11:50:28.436Z,1014.03
2017-08-02T11:51:28.474Z,1014.06
2017-08-02T11:52:28.501Z,1014.07
2017-08-02T11:53:28.533Z,1014.05
2017-08-02T11:54:28.564Z,1014.07
2017-08-02T11:55:28.595Z,1014.02
2017-08-02T11:56:28.624Z,1014.03
2017-08-02T11:57:28.655Z,1013.99
2017-08-02T11:58:28.687Z,1013.96
2017-08-02T11:59:28.723Z,1013.96
2017-08-02T12:00:28.752Z,1013.91
2017-08-02T12:01:28.782Z,1013.94
2017-08-02T12:02:28.810Z,1013.91
2017-08-02T12:03:28.843Z,1013.89
2017-08-02T12:04:28.880Z,1013.86
2017-08-02T12:06:28.938Z,1013.83
2017-08-02T12:07:28.982Z,1013.81
2017-08-02T12:08:29.004Z,1013.88
2017-08-02T12:09:29.032Z,1013.9
2017-08-02T12:10:29.063Z,1013.93
2017-08-02T12:11:29.096Z,1013.9
2017-08-02T12:12:29.124Z,1013.91
2017-08-02T12:13:29.160Z,1013.9
2017-08-02T12:14:29.190Z,1013.91
2017-08-02T12:15:29.221Z,1013.93
2017-08-02T12:16:29.251Z,1013.9
2017-08-02T12:17:29.283Z,1013.91
2017-08-02T12:18:29.310Z,1013.86
2017-08-02T12:19:29.348Z,1013.87
2017-08-02T12:21:29.410Z,1013.81
2017-08-02T12:22:29.438Z,1013.87
2017-08-02T12:23:29.475Z,1013.78
2017-08-02T12:24:29.503Z,1013.77
2017-08-02T12:25:29.533Z,1013.78
2017-08-02T12:26:29.565Z,1013.82
2017-08-02T12:27:29.597Z,1013.76
2017-08-02T12:28:29.627Z,1013.72
2017-08-02T12:29:29.658Z,1013.75
2017-08-02T12:30:29.688Z,1013.77
2017-08-02T12:31:29.717Z,1013.81
2017-08-02T12:32:29.753Z,1013.77
2017-08-02T12:33:29.783Z,1013.78
2017-08-02T12:34:29.814Z,1013.76
2017-08-02T12:35:29.844Z,1013.83
2017-08-02T12:36:29.880Z,1013.85
2017-08-02T12:37:29.906Z,1013.89
2017-08-02T12:38:29.937Z,1013.94
2017-08-02T12:39:29.972Z,1013.92
2017-08-02T12:40:29.997Z,1013.97
2017-08-02T12:41:30.033Z,1013.88
2017-08-02T12:42:30.064Z,1013.83
2017-08-02T12:43:30.092Z,1013.76
2017-08-02T12:44:30.126Z,1013.75
2017-08-02T12:45:30.158Z,1013.76
2017-08-02T12:46:30.190Z,1013.77
2017-08-02T12:47:30.218Z,1013.78
2017-08-02T12:48:30.247Z,1013.82